createdAt,value
2023-04-05T00:01:08.181Z,0.70
2023-04-05T00:03:37.604Z,0.80
2023-04-05T00:06:06.269Z,0.90
2023-04-05T00:08:34.200Z,0.80
2023-04-05T00:11:02.194Z,0.80
2023-04-05T00:13:30.477Z,0.80
2023-04-05T00:16:01.132Z,0.80
2023-04-05T00:18:34.037Z,0.90
2023-04-05T00:21:03.314Z,0.90
2023-04-05T00:23:37.400Z,0.80
2023-04-05T00:26:05.497Z,0.90
2023-04-05T00:28:33.422Z,0.90
2023-04-05T00:31:02.168Z,0.90
2023-04-05T00:33:30.038Z,0.90
2023-04-05T00:35:57.981Z,0.90
2023-04-05T00:38:27.369Z,0.80
2023-04-05T00:40:55.289Z,0.80
2023-04-05T00:43:23.391Z,0.90
2023-04-05T00:45:51.558Z,0.80
2023-04-05T00:48:19.701Z,0.80
2023-04-05T00:50:51.431Z,0.80
2023-04-05T00:53:20.630Z,0.80
2023-04-05T00:55:50.691Z,0.80
2023-04-05T00:58:22.193Z,0.70
2023-04-05T01:00:59.691Z,0.70
2023-04-05T01:03:29.256Z,0.60
2023-04-05T01:06:05.139Z,0.60
2023-04-05T01:08:39.029Z,0.60
2023-04-05T01:11:09.828Z,0.50
2023-04-05T01:13:37.819Z,0.50
2023-04-05T01:16:06.329Z,0.50
2023-04-05T01:18:36.530Z,0.40
2023-04-05T01:21:29.580Z,0.50
2023-04-05T01:24:14.801Z,0.50
2023-04-05T01:27:02.524Z,0.50
2023-04-05T01:29:47.148Z,0.40
2023-04-05T01:32:24.829Z,0.50
2023-04-05T01:34:57.413Z,0.40
2023-04-05T01:37:31.885Z,0.40
2023-04-05T01:40:00.772Z,0.40
2023-04-05T01:42:28.749Z,0.30
2023-04-05T01:44:59.169Z,0.30
2023-04-05T01:47:27.197Z,0.40
2023-04-05T01:49:55.424Z,0.30
2023-04-05T01:52:26.695Z,0.30
2023-04-05T01:54:54.768Z,0.30
2023-04-05T01:57:22.729Z,0.20
2023-04-05T01:59:50.741Z,0.20
2023-04-05T02:02:20.023Z,0.10
2023-04-05T02:04:49.641Z,0.10
2023-04-05T02:07:17.545Z,0.10
2023-04-05T02:09:45.465Z,0.00
2023-04-05T02:12:14.201Z,0.00
2023-04-05T02:14:42.456Z,-0.10
2023-04-05T02:17:10.410Z,0.00
2023-04-05T02:19:41.693Z,0.00
2023-04-05T02:22:10.095Z,-0.10
2023-04-05T02:24:38.158Z,0.00
2023-04-05T02:27:07.402Z,0.10
2023-04-05T02:29:35.708Z,0.10
2023-04-05T02:32:04.224Z,0.10
2023-04-05T02:34:33.523Z,0.00
2023-04-05T02:37:02.890Z,0.00
2023-04-05T02:39:31.086Z,0.00
2023-04-05T02:41:59.040Z,0.00
2023-04-05T02:44:27.080Z,0.00
2023-04-05T02:46:55.233Z,0.00
2023-04-05T02:49:29.142Z,0.00
2023-04-05T02:51:59.000Z,0.10
2023-04-05T02:54:28.305Z,0.00
2023-04-05T02:57:02.313Z,0.00
2023-04-05T02:59:36.606Z,0.00
2023-04-05T03:02:05.955Z,-0.20
2023-04-05T03:04:35.160Z,-0.20
2023-04-05T03:07:05.693Z,-0.20
2023-04-05T03:09:40.273Z,-0.20
2023-04-05T03:12:11.039Z,-0.30
2023-04-05T03:14:42.532Z,-0.30
2023-04-05T03:17:14.569Z,-0.30
2023-04-05T03:19:46.529Z,-0.40
2023-04-05T03:22:19.275Z,-0.40
2023-04-05T03:24:48.563Z,-0.50
2023-04-05T03:27:18.846Z,-0.50
2023-04-05T03:30:02.627Z,-0.50
2023-04-05T03:32:33.275Z,-0.50
2023-04-05T03:35:13.237Z,-0.50
2023-04-05T03:37:44.366Z,-0.50
2023-04-05T03:40:14.670Z,-0.60
2023-04-05T03:42:44.289Z,-0.60
2023-04-05T03:45:12.704Z,-0.60
2023-04-05T03:47:40.898Z,-0.70
2023-04-05T03:50:10.008Z,-0.70
2023-04-05T03:52:38.006Z,-0.70
2023-04-05T03:55:07.975Z,-0.70
2023-04-05T03:57:38.790Z,-0.80
2023-04-05T04:00:19.994Z,-0.80
2023-04-05T04:03:02.523Z,-0.80
2023-04-05T04:05:31.340Z,-0.80
2023-04-05T04:08:00.013Z,-0.80
2023-04-05T04:10:28.118Z,-0.80
2023-04-05T04:13:00.432Z,-0.80
2023-04-05T04:15:32.769Z,-0.80
2023-04-05T04:18:14.976Z,-0.90
2023-04-05T04:21:06.690Z,-0.90
2023-04-05T04:23:49.904Z,-0.90
2023-04-05T04:26:28.915Z,-0.90
2023-04-05T04:29:18.461Z,-1.00
2023-04-05T04:31:59.257Z,-1.00
2023-04-05T04:34:45.058Z,-1.00
2023-04-05T04:37:37.626Z,-1.10
2023-04-05T04:40:18.116Z,-1.10
2023-04-05T04:43:14.517Z,-1.20
2023-04-05T04:45:57.354Z,-1.10
2023-04-05T04:48:55.460Z,-1.10
2023-04-05T04:51:33.424Z,-1.10
2023-04-05T04:54:01.659Z,-1.10
2023-04-05T04:56:29.700Z,-1.10
2023-04-05T04:58:59.591Z,-1.10
2023-04-05T05:01:28.949Z,-1.10
2023-04-05T05:03:57.032Z,-1.10
2023-04-05T05:06:31.764Z,-1.10
2023-04-05T05:08:59.757Z,-1.10
2023-04-05T05:11:29.326Z,-1.00
2023-04-05T05:13:57.824Z,-1.00
2023-04-05T05:16:30.109Z,-1.00
2023-04-05T05:18:58.080Z,-1.00
2023-04-05T05:21:29.146Z,-1.00
2023-04-05T05:24:01.448Z,-1.10
2023-04-05T05:26:29.482Z,-1.00
2023-04-05T05:29:01.926Z,-1.10
2023-04-05T05:31:33.968Z,-1.10
2023-04-05T05:34:02.179Z,-1.10
2023-04-05T05:36:30.989Z,-1.20
2023-04-05T05:38:59.149Z,-1.10
2023-04-05T05:41:27.157Z,-1.10
2023-04-05T05:43:55.039Z,-1.00
2023-04-05T05:46:22.985Z,-0.90
2023-04-05T05:48:52.290Z,-0.90
2023-04-05T05:51:20.766Z,-0.80
2023-04-05T05:53:48.754Z,-0.70
2023-04-05T05:56:16.668Z,-0.60
2023-04-05T05:58:44.830Z,-0.40
2023-04-05T06:01:12.969Z,-0.30
2023-04-05T06:03:41.392Z,-0.20
2023-04-05T06:06:11.335Z,0.00
2023-04-05T06:08:39.454Z,0.10
2023-04-05T06:11:07.416Z,0.20
2023-04-05T06:13:35.448Z,0.30
2023-04-05T06:16:03.556Z,0.50
2023-04-05T06:18:31.479Z,0.60
2023-04-05T06:20:59.382Z,0.70
2023-04-05T06:23:28.764Z,0.80
2023-04-05T06:25:57.622Z,0.90
2023-04-05T06:28:25.558Z,1.00
2023-04-05T06:30:54.844Z,1.20
2023-04-05T06:33:22.797Z,1.30
2023-04-05T06:35:50.833Z,1.50
2023-04-05T06:38:18.920Z,1.70
2023-04-05T06:40:48.274Z,1.80
2023-04-05T06:43:16.444Z,1.90
2023-04-05T06:45:44.708Z,2.00
2023-04-05T06:48:12.722Z,2.20
2023-04-05T06:50:41.154Z,2.30
2023-04-05T06:53:09.390Z,2.40
2023-04-05T06:55:37.296Z,2.50
2023-04-05T06:58:06.539Z,2.60
2023-04-05T07:00:34.464Z,2.70
2023-04-05T07:03:02.679Z,2.80
2023-04-05T07:05:30.703Z,2.90
2023-04-05T07:07:58.581Z,2.90
2023-04-05T07:10:26.480Z,3.00
2023-04-05T07:12:54.426Z,3.20
2023-04-05T07:15:23.726Z,3.20
2023-04-05T07:17:51.958Z,3.30
2023-04-05T07:20:19.916Z,3.40
2023-04-05T07:22:47.860Z,3.50
2023-04-05T07:25:15.980Z,3.50
2023-04-05T07:27:43.932Z,3.70
2023-04-05T07:30:15.018Z,3.80
2023-04-05T07:32:44.338Z,3.90
2023-04-05T07:35:12.448Z,4.00
2023-04-05T07:37:40.688Z,4.10
2023-04-05T07:40:10.929Z,4.10
2023-04-05T07:42:38.944Z,4.10
2023-04-05T07:45:07.941Z,4.10
2023-04-05T07:47:36.036Z,4.20
2023-04-05T07:50:07.205Z,4.30
2023-04-05T07:52:35.195Z,4.40
2023-04-05T07:55:03.230Z,4.50
2023-04-05T07:57:31.275Z,4.60
2023-04-05T07:59:59.198Z,4.70
2023-04-05T08:02:27.130Z,4.80
2023-04-05T08:04:55.390Z,4.90
2023-04-05T08:07:26.169Z,4.90
2023-04-05T08:09:57.535Z,5.00
2023-04-05T08:12:25.580Z,4.90
2023-04-05T08:14:53.822Z,5.00
2023-04-05T08:17:21.819Z,5.20
2023-04-05T08:19:50.067Z,5.20
2023-04-05T08:22:18.970Z,5.20
2023-04-05T08:24:52.067Z,5.30
2023-04-05T08:27:19.985Z,5.40
2023-04-05T08:29:47.913Z,5.50
2023-04-05T08:32:16.097Z,5.60
2023-04-05T08:34:44.120Z,5.80
2023-04-05T08:37:12.175Z,5.90
2023-04-05T08:39:40.167Z,5.90
2023-04-05T08:42:16.926Z,5.90
2023-04-05T08:44:46.737Z,5.80
2023-04-05T08:47:18.325Z,5.90
2023-04-05T08:49:46.952Z,5.90
2023-04-05T08:52:14.922Z,6.00
2023-04-05T08:54:43.094Z,6.10
2023-04-05T08:57:12.999Z,6.30
2023-04-05T08:59:42.506Z,6.50
2023-04-05T09:02:18.675Z,6.80
2023-04-05T09:04:49.443Z,7.00
2023-04-05T09:07:18.460Z,7.10
2023-04-05T09:09:49.638Z,7.10
2023-04-05T09:12:21.835Z,7.20
2023-04-05T09:14:51.491Z,7.20
2023-04-05T09:17:19.970Z,7.20
2023-04-05T09:19:50.059Z,7.20
2023-04-05T09:22:19.406Z,7.30
2023-04-05T09:24:47.936Z,7.60
2023-04-05T09:27:21.496Z,7.90
2023-04-05T09:29:57.000Z,8.00
2023-04-05T09:32:28.370Z,8.10
2023-04-05T09:35:01.065Z,8.30
2023-04-05T09:37:30.870Z,8.50
2023-04-05T09:40:04.158Z,8.70
2023-04-05T09:42:44.749Z,8.80
2023-04-05T09:45:13.124Z,8.80
2023-04-05T09:47:58.050Z,9.00
2023-04-05T09:50:26.729Z,9.10
2023-04-05T09:53:07.869Z,9.10
2023-04-05T09:55:36.135Z,9.50
2023-04-05T09:58:05.412Z,9.50
2023-04-05T10:00:33.815Z,9.50
2023-04-05T10:03:01.834Z,9.70
2023-04-05T10:05:32.448Z,9.90
2023-04-05T10:08:01.129Z,10.10
2023-04-05T10:10:30.363Z,10.20
2023-04-05T10:12:58.568Z,10.20
2023-04-05T10:15:28.015Z,10.50
2023-04-05T10:18:04.621Z,10.50
2023-04-05T10:20:40.516Z,10.70
2023-04-05T10:23:10.317Z,10.90
2023-04-05T10:25:58.969Z,11.20
2023-04-05T10:28:32.837Z,11.50
2023-04-05T10:31:14.149Z,11.50
2023-04-05T10:33:47.668Z,11.50
2023-04-05T10:36:24.307Z,11.60
2023-04-05T10:39:02.484Z,11.50
2023-04-05T10:41:31.533Z,11.30
2023-04-05T10:44:01.587Z,11.50
2023-04-05T10:46:34.376Z,11.70
2023-04-05T10:49:12.985Z,12.10
2023-04-05T10:51:43.876Z,12.40
2023-04-05T10:54:12.806Z,12.30
2023-04-05T10:56:41.558Z,12.60
2023-04-05T10:59:09.910Z,12.70
2023-04-05T11:01:40.543Z,13.00
2023-04-05T11:04:16.248Z,13.30
2023-04-05T11:06:47.816Z,13.70
2023-04-05T11:09:18.096Z,13.80
2023-04-05T11:11:47.278Z,13.60
2023-04-05T11:14:20.962Z,13.30
2023-04-05T11:16:53.445Z,13.40
2023-04-05T11:19:22.155Z,13.30
2023-04-05T11:22:02.601Z,13.20
2023-04-05T11:24:51.427Z,13.60
2023-04-05T11:27:26.861Z,13.90
2023-04-05T11:29:55.678Z,14.00
2023-04-05T11:32:25.217Z,14.20
2023-04-05T11:35:03.447Z,14.50
2023-04-05T11:37:56.934Z,14.80
2023-04-05T11:40:26.863Z,14.80
2023-04-05T11:43:05.930Z,15.00
2023-04-05T11:45:35.021Z,14.90
2023-04-05T11:48:08.407Z,14.90
2023-04-05T11:50:38.196Z,15.00
2023-04-05T11:53:10.918Z,14.90
2023-04-05T11:55:39.623Z,14.70
2023-04-05T11:58:18.564Z,14.30
2023-04-05T12:00:47.321Z,14.20
2023-04-05T12:03:17.913Z,14.10
2023-04-05T12:05:47.594Z,14.00
2023-04-05T12:08:15.680Z,14.00
2023-04-05T12:10:43.723Z,14.20
2023-04-05T12:13:12.792Z,14.30
2023-04-05T12:15:41.661Z,14.80
2023-04-05T12:18:17.404Z,15.20
2023-04-05T12:20:45.810Z,15.40
2023-04-05T12:23:14.080Z,15.40
2023-04-05T12:25:42.927Z,15.60
2023-04-05T12:28:11.802Z,15.40
2023-04-05T12:30:50.019Z,15.50
2023-04-05T12:33:28.191Z,15.90
2023-04-05T12:35:56.515Z,16.20
2023-04-05T12:38:28.149Z,16.20
2023-04-05T12:41:00.251Z,16.20
2023-04-05T12:43:38.725Z,16.10
2023-04-05T12:46:10.574Z,16.40
2023-04-05T12:48:39.916Z,16.60
2023-04-05T12:51:16.029Z,16.70
2023-04-05T12:53:47.133Z,16.80
2023-04-05T12:56:16.260Z,16.70
2023-04-05T12:58:44.661Z,16.80
2023-04-05T13:01:12.920Z,17.00
2023-04-05T13:03:46.964Z,17.30
2023-04-05T13:06:16.282Z,17.40
2023-04-05T13:08:44.177Z,17.30
2023-04-05T13:11:12.583Z,17.40
2023-04-05T13:13:40.710Z,17.90
2023-04-05T13:16:08.887Z,17.80
2023-04-05T13:18:37.083Z,17.80
2023-04-05T13:21:08.035Z,17.80
2023-04-05T13:23:36.343Z,17.90
2023-04-05T13:26:04.594Z,18.40
2023-04-05T13:28:32.882Z,18.70
2023-04-05T13:31:00.825Z,18.80
2023-04-05T13:33:28.849Z,18.80
2023-04-05T13:35:56.945Z,19.10
2023-04-05T13:38:26.552Z,19.40
2023-04-05T13:40:54.483Z,19.20
2023-04-05T13:43:22.457Z,19.70
2023-04-05T13:45:50.955Z,19.70
2023-04-05T13:48:18.882Z,19.90
2023-04-05T13:50:47.027Z,19.00
2023-04-05T13:53:15.471Z,19.10
2023-04-05T13:55:44.763Z,19.70
2023-04-05T13:58:14.408Z,19.50
2023-04-05T14:00:42.649Z,19.50
2023-04-05T14:03:10.953Z,19.10
2023-04-05T14:05:39.014Z,19.60
2023-04-05T14:08:06.988Z,19.80
2023-04-05T14:10:34.949Z,20.00
2023-04-05T14:13:04.435Z,19.50
2023-04-05T14:15:32.836Z,20.00
2023-04-05T14:18:02.068Z,20.60
2023-04-05T14:20:31.715Z,20.80
2023-04-05T14:23:01.679Z,21.10
2023-04-05T14:25:30.163Z,20.90
2023-04-05T14:27:58.225Z,20.80
2023-04-05T14:30:27.811Z,21.00
2023-04-05T14:32:55.850Z,21.30
2023-04-05T14:35:23.926Z,20.80
2023-04-05T14:37:52.016Z,20.70
2023-04-05T14:40:20.047Z,20.90
2023-04-05T14:42:50.173Z,21.40
2023-04-05T14:45:18.947Z,21.30
2023-04-05T14:47:48.431Z,20.80
2023-04-05T14:50:16.730Z,20.60
2023-04-05T14:52:45.467Z,21.20
2023-04-05T14:55:14.047Z,22.00
2023-04-05T14:57:42.316Z,21.60
2023-04-05T15:00:12.059Z,21.70
2023-04-05T15:02:40.473Z,21.80
2023-04-05T15:05:10.617Z,22.60
2023-04-05T15:07:38.860Z,22.10
2023-04-05T15:10:07.603Z,21.90
2023-04-05T15:12:35.859Z,21.50
2023-04-05T15:15:03.863Z,20.40
2023-04-05T15:17:32.090Z,19.60
2023-04-05T15:20:00.289Z,19.20
2023-04-05T15:22:29.836Z,19.10
2023-04-05T15:24:58.998Z,19.20
2023-04-05T15:27:27.065Z,19.90
2023-04-05T15:29:55.404Z,21.20
2023-04-05T15:32:23.456Z,21.90
2023-04-05T15:34:51.503Z,21.70
2023-04-05T15:37:19.872Z,21.40
2023-04-05T15:39:49.278Z,20.60
2023-04-05T15:42:18.586Z,21.00
2023-04-05T15:44:46.663Z,21.40
2023-04-05T15:47:14.954Z,20.90
2023-04-05T15:49:43.916Z,20.80
2023-04-05T15:52:12.584Z,20.70
2023-04-05T15:54:40.639Z,21.00
2023-04-05T15:57:10.070Z,21.00
2023-04-05T15:59:38.388Z,20.50
2023-04-05T16:02:06.711Z,19.80
2023-04-05T16:04:34.803Z,19.30
2023-04-05T16:07:02.838Z,18.70
2023-04-05T16:09:30.921Z,17.20
2023-04-05T16:11:59.218Z,16.50
2023-04-05T16:14:29.102Z,15.80
2023-04-05T16:16:57.253Z,15.40
2023-04-05T16:19:25.563Z,14.80
2023-04-05T16:21:53.791Z,14.30
2023-04-05T16:24:21.926Z,13.80
2023-04-05T16:26:49.933Z,13.40
2023-04-05T16:29:18.123Z,13.20
2023-04-05T16:31:48.084Z,13.00
2023-04-05T16:34:16.524Z,12.80
2023-04-05T16:36:44.833Z,12.80
2023-04-05T16:39:16.063Z,12.60
2023-04-05T16:41:44.453Z,12.40
2023-04-05T16:44:12.600Z,12.20
2023-04-05T16:46:40.897Z,12.10
2023-04-05T16:49:10.265Z,11.90
2023-04-05T16:51:39.677Z,11.70
2023-04-05T16:54:07.729Z,11.60
2023-04-05T16:56:37.138Z,11.50
2023-04-05T16:59:07.547Z,11.40
2023-04-05T17:01:36.625Z,11.20
2023-04-05T17:04:04.950Z,11.00
2023-04-05T17:06:34.348Z,11.00
2023-04-05T17:09:03.502Z,11.00
2023-04-05T17:11:31.937Z,11.00
2023-04-05T17:14:00.836Z,11.00
2023-04-05T17:16:29.126Z,10.90
2023-04-05T17:18:57.469Z,10.80
2023-04-05T17:21:31.768Z,10.80
2023-04-05T17:24:01.182Z,10.70
2023-04-05T17:26:29.726Z,10.60
2023-04-05T17:28:57.852Z,10.60
2023-04-05T17:31:26.389Z,10.60
2023-04-05T17:33:54.534Z,10.50
2023-04-05T17:36:22.577Z,10.40
2023-04-05T17:38:50.728Z,10.40
2023-04-05T17:41:20.195Z,10.30
2023-04-05T17:43:48.251Z,10.20
2023-04-05T17:46:20.079Z,10.20
2023-04-05T17:48:52.750Z,10.10
2023-04-05T17:51:22.074Z,10.10
2023-04-05T17:53:50.209Z,10.00
2023-04-05T17:56:19.582Z,9.90
2023-04-05T17:58:48.456Z,9.90
2023-04-05T18:01:16.655Z,9.80
2023-04-05T18:03:44.978Z,9.70
2023-04-05T18:06:13.797Z,9.70
2023-04-05T18:08:41.833Z,9.60
2023-04-05T18:11:09.858Z,9.50
2023-04-05T18:13:39.166Z,9.50
2023-04-05T18:16:07.684Z,9.40
2023-04-05T18:18:35.957Z,9.30
2023-04-05T18:21:04.191Z,9.20
2023-04-05T18:23:32.188Z,9.20
2023-04-05T18:26:05.816Z,9.10
2023-04-05T18:28:33.823Z,9.10
2023-04-05T18:31:03.279Z,9.00
2023-04-05T18:33:31.319Z,8.80
2023-04-05T18:35:59.352Z,8.50
2023-04-05T18:38:27.424Z,8.30
2023-04-05T18:41:01.913Z,8.10
2023-04-05T18:43:29.990Z,7.90
2023-04-05T18:45:58.100Z,7.70
2023-04-05T18:48:27.540Z,7.40
2023-04-05T18:50:56.006Z,7.00
2023-04-05T18:53:24.366Z,6.80
2023-04-05T18:55:52.455Z,6.50
2023-04-05T18:58:21.343Z,6.40
2023-04-05T19:00:49.367Z,6.30
2023-04-05T19:03:17.453Z,6.20
2023-04-05T19:05:51.570Z,6.20
2023-04-05T19:08:20.624Z,6.20
2023-04-05T19:10:48.750Z,6.40
2023-04-05T19:13:16.813Z,6.40
2023-04-05T19:15:46.335Z,6.20
2023-04-05T19:18:14.390Z,5.90
2023-04-05T19:20:42.501Z,5.60
2023-04-05T19:23:11.931Z,5.40
2023-04-05T19:25:40.195Z,5.20
2023-04-05T19:28:08.309Z,5.10
2023-04-05T19:30:36.390Z,5.10
2023-04-05T19:33:04.681Z,5.20
2023-04-05T19:35:32.783Z,5.20
2023-04-05T19:38:00.920Z,5.20
2023-04-05T19:40:30.319Z,5.00
2023-04-05T19:42:59.679Z,4.90
2023-04-05T19:45:29.221Z,4.80
2023-04-05T19:47:58.980Z,4.70
2023-04-05T19:50:56.564Z,4.60
2023-04-05T19:53:40.423Z,4.50
2023-04-05T19:56:13.220Z,4.40
2023-04-05T19:58:42.243Z,4.30
2023-04-05T20:01:10.731Z,4.30
2023-04-05T20:03:40.062Z,4.30
2023-04-05T20:06:12.527Z,4.30
2023-04-05T20:08:42.319Z,4.10
2023-04-05T20:11:13.362Z,4.00
2023-04-05T20:13:46.205Z,3.90
2023-04-05T20:16:15.002Z,3.90
2023-04-05T20:18:46.584Z,3.80
2023-04-05T20:21:15.381Z,3.70
2023-04-05T20:23:44.728Z,3.60
2023-04-05T20:26:17.611Z,3.60
2023-04-05T20:28:54.633Z,3.50
2023-04-05T20:31:25.882Z,3.50
2023-04-05T20:33:59.150Z,3.40
2023-04-05T20:36:33.163Z,3.40
2023-04-05T20:39:07.469Z,3.40
2023-04-05T20:41:37.443Z,3.30
2023-04-05T20:44:05.774Z,3.30
2023-04-05T20:46:34.184Z,3.20
2023-04-05T20:49:02.370Z,3.20
2023-04-05T20:51:30.677Z,3.20
2023-04-05T20:53:58.777Z,3.20
2023-04-05T20:56:26.817Z,3.20
2023-04-05T20:58:56.488Z,3.10
2023-04-05T21:01:24.602Z,3.00
2023-04-05T21:03:53.714Z,3.00
2023-04-05T21:06:21.801Z,2.90
2023-04-05T21:08:50.298Z,2.90
2023-04-05T21:11:18.499Z,2.90
2023-04-05T21:13:46.515Z,2.90
2023-04-05T21:16:16.211Z,2.80
2023-04-05T21:18:44.303Z,2.80
2023-04-05T21:21:12.267Z,2.80
2023-04-05T21:23:40.376Z,2.80
2023-04-05T21:26:08.913Z,2.70
2023-04-05T21:28:36.917Z,2.60
2023-04-05T21:31:05.079Z,2.60
2023-04-05T21:33:34.605Z,2.60
2023-04-05T21:36:02.811Z,2.60
2023-04-05T21:38:30.896Z,2.50
2023-04-05T21:40:58.985Z,2.50
2023-04-05T21:43:27.059Z,2.50
2023-04-05T21:45:55.054Z,2.50
2023-04-05T21:48:24.559Z,2.40
2023-04-05T21:50:54.064Z,2.40
2023-04-05T21:53:24.086Z,2.30
2023-04-05T21:55:52.558Z,2.30
2023-04-05T21:58:20.611Z,2.30
2023-04-05T22:00:48.714Z,2.20
2023-04-05T22:03:16.888Z,2.10
2023-04-05T22:05:44.923Z,2.00
2023-04-05T22:08:14.286Z,2.10
2023-04-05T22:10:43.672Z,2.10
2023-04-05T22:13:11.865Z,2.10
2023-04-05T22:15:39.926Z,2.00
2023-04-05T22:18:08.461Z,2.00
2023-04-05T22:20:36.685Z,1.90
2023-04-05T22:23:04.710Z,1.90
2023-04-05T22:25:34.188Z,1.90
2023-04-05T22:28:02.333Z,1.80
2023-04-05T22:30:40.962Z,1.80
2023-04-05T22:33:09.267Z,1.90
2023-04-05T22:35:37.370Z,1.80
2023-04-05T22:38:05.522Z,1.80
2023-04-05T22:40:35.269Z,1.80
2023-04-05T22:43:03.296Z,1.80
2023-04-05T22:45:31.283Z,1.80
2023-04-05T22:47:59.312Z,1.80
2023-04-05T22:50:27.355Z,1.70
2023-04-05T22:52:55.418Z,1.70
2023-04-05T22:55:23.737Z,1.80
2023-04-05T22:57:53.159Z,1.70
2023-04-05T23:00:21.220Z,1.70
2023-04-05T23:02:49.330Z,1.70
2023-04-05T23:05:17.463Z,1.70
2023-04-05T23:07:45.622Z,1.60
2023-04-05T23:10:13.714Z,1.60
2023-04-05T23:12:41.717Z,1.60
2023-04-05T23:15:12.338Z,1.60
2023-04-05T23:17:40.591Z,1.60
2023-04-05T23:20:09.903Z,1.60
2023-04-05T23:22:37.906Z,1.60
2023-04-05T23:25:07.220Z,1.50
2023-04-05T23:27:35.403Z,1.50
2023-04-05T23:30:03.420Z,1.40
2023-04-05T23:32:32.857Z,1.30
2023-04-05T23:35:01.052Z,1.30
2023-04-05T23:37:29.101Z,1.30
2023-04-05T23:39:57.117Z,1.20
2023-04-05T23:42:25.478Z,1.20
2023-04-05T23:44:53.508Z,1.20
2023-04-05T23:47:21.723Z,1.10
2023-04-05T23:49:51.154Z,1.10
2023-04-05T23:52:19.159Z,1.10
2023-04-05T23:54:47.182Z,1.10
2023-04-05T23:57:15.707Z,1.10
2023-04-05T23:59:43.816Z,1.10
